Time;durP1;ratioP1;P1;durP2;ratioP2;P2;SDS_P1;SDS_P2;PMS_P1;PMS_P2;Temp;Humidity;BMP_temperature;BMP_pressure;BME280_temperature;BME280_humidity;BME280_pressure;Samples;Min_cycle;Max_cycle;Signal;HPM_P1;HPM_P2
2021/12/18 00:00:52;;;;;;;48.10;20.75;;;;;;;;;;4988177;28;20034;-66
2021/12/18 00:03:18;;;;;;;46.08;22.50;;;;;;;;;;4992012;28;20076;-66
2021/12/18 00:05:45;;;;;;;48.85;21.88;;;;;;;;;;4992788;28;20514;-66
2021/12/18 00:08:11;;;;;;;49.28;21.95;;;;;;;;;;4992163;28;20151;-66
2021/12/18 00:10:37;;;;;;;52.83;21.60;;;;;;;;;;4992939;28;20022;-67
2021/12/18 00:13:03;;;;;;;48.08;21.50;;;;;;;;;;4992620;28;20113;-66
2021/12/18 00:15:30;;;;;;;48.25;21.83;;;;;;;;;;4992416;28;20084;-66
2021/12/18 00:17:57;;;;;;;48.00;22.55;;;;;;;;;;4990878;28;20045;-66
2021/12/18 00:20:25;;;;;;;45.25;21.08;;;;;;;;;;4991079;28;20387;-66
2021/12/18 00:22:52;;;;;;;53.10;23.70;;;;;;;;;;4992682;28;20110;-66
2021/12/18 00:25:19;;;;;;;52.22;22.13;;;;;;;;;;5005806;28;20467;-66
2021/12/18 00:27:45;;;;;;;54.30;23.23;;;;;;;;;;4992338;28;20023;-66
2021/12/18 00:30:11;;;;;;;48.65;21.52;;;;;;;;;;4992239;28;20030;-66
2021/12/18 00:32:38;;;;;;;50.88;22.10;;;;;;;;;;4992509;28;20113;-66
2021/12/18 00:35:04;;;;;;;49.88;23.08;;;;;;;;;;4990754;28;20042;-66
2021/12/18 00:37:31;;;;;;;55.22;22.45;;;;;;;;;;4995175;28;20033;-66
2021/12/18 00:39:59;;;;;;;50.42;22.90;;;;;;;;;;4995359;28;20030;-66
2021/12/18 00:45:05;;;;;;;53.90;22.67;;;;;;;;;;4995213;28;20446;-66
2021/12/18 00:47:31;;;;;;;45.63;19.83;;;;;;;;;;4994264;28;20022;-66
2021/12/18 00:49:57;;;;;;;45.85;22.10;;;;;;;;;;4995519;28;20084;-66
2021/12/18 00:52:23;;;;;;;52.22;23.92;;;;;;;;;;4994295;28;20022;-66
2021/12/18 00:54:50;;;;;;;50.20;23.02;;;;;;;;;;4995275;28;20026;-66
2021/12/18 00:57:17;;;;;;;54.25;24.52;;;;;;;;;;4994672;28;20033;-66
2021/12/18 00:59:43;;;;;;;50.33;22.60;;;;;;;;;;4994928;28;20023;-66
2021/12/18 01:02:09;;;;;;;56.10;23.00;;;;;;;;;;4994970;28;20026;-66
2021/12/18 01:04:35;;;;;;;56.47;23.23;;;;;;;;;;4993858;28;20032;-66
2021/12/18 01:07:01;;;;;;;58.80;25.08;;;;;;;;;;4995142;28;20118;-66
2021/12/18 01:12:26;;;;;;;57.70;25.27;;;;;;;;;;4953392;29;20043;-66
2021/12/18 01:15:07;;;;;;;65.50;26.17;;;;;;;;;;4953345;29;20035;-66
2021/12/18 01:25:10;;;;;;;54.08;23.92;;;;;;;;;;4953788;29;20531;-66
2021/12/18 01:27:36;;;;;;;56.58;24.48;;;;;;;;;;4953064;28;20411;-66
2021/12/18 01:30:06;;;;;;;59.83;25.33;;;;;;;;;;4953642;29;20045;-66
2021/12/18 01:32:32;;;;;;;53.67;23.98;;;;;;;;;;4953085;28;20039;-66
2021/12/18 01:34:59;;;;;;;64.30;24.73;;;;;;;;;;4952578;28;20059;-66
2021/12/18 01:37:26;;;;;;;52.92;21.75;;;;;;;;;;4952832;29;20130;-66
2021/12/18 01:39:53;;;;;;;54.45;24.17;;;;;;;;;;4953491;29;20572;-66
2021/12/18 01:52:55;;;;;;;53.50;23.33;;;;;;;;;;4994052;28;20041;-66
2021/12/18 01:55:29;;;;;;;53.67;23.27;;;;;;;;;;4993541;28;20085;-67
2021/12/18 01:57:55;;;;;;;57.22;23.90;;;;;;;;;;4993612;28;20364;-67
2021/12/18 02:00:23;;;;;;;57.92;22.90;;;;;;;;;;4992916;28;20077;-67
2021/12/18 02:02:49;;;;;;;49.05;21.92;;;;;;;;;;4993621;28;20022;-68
2021/12/18 02:05:15;;;;;;;52.85;22.55;;;;;;;;;;4993706;28;20030;-67
2021/12/18 02:07:42;;;;;;;59.65;24.17;;;;;;;;;;4993638;28;20556;-67
2021/12/18 02:10:16;;;;;;;58.15;24.08;;;;;;;;;;4992747;28;20097;-67
2021/12/18 02:20:45;;;;;;;64.55;26.23;;;;;;;;;;4990108;28;20085;-66
2021/12/18 02:23:12;;;;;;;64.25;25.08;;;;;;;;;;4991746;28;20048;-66
2021/12/18 02:25:38;;;;;;;57.00;23.33;;;;;;;;;;4990394;28;20053;-66
2021/12/18 02:28:15;;;;;;;56.55;23.95;;;;;;;;;;4992087;28;20085;-66
2021/12/18 02:30:41;;;;;;;51.45;22.50;;;;;;;;;;4991210;28;21118;-66
2021/12/18 02:33:07;;;;;;;59.80;23.40;;;;;;;;;;4991488;28;20034;-67
2021/12/18 02:35:38;;;;;;;49.97;22.35;;;;;;;;;;4990116;28;20085;-67
2021/12/18 02:38:10;;;;;;;62.25;25.42;;;;;;;;;;4991465;28;20102;-66
2021/12/18 02:43:25;;;;;;;56.03;23.35;;;;;;;;;;4992181;28;20060;-66
2021/12/18 02:45:55;;;;;;;59.33;21.85;;;;;;;;;;4993080;28;20113;-66
2021/12/18 02:48:21;;;;;;;55.50;21.50;;;;;;;;;;4993281;28;20038;-66
2021/12/18 02:50:47;;;;;;;65.18;24.42;;;;;;;;;;4992497;28;20034;-66
2021/12/18 02:53:13;;;;;;;67.38;23.80;;;;;;;;;;4992905;28;20027;-66
2021/12/18 02:55:39;;;;;;;51.22;22.92;;;;;;;;;;4992183;28;20037;-66
2021/12/18 02:58:05;;;;;;;52.92;23.25;;;;;;;;;;4992717;28;20030;-66
2021/12/18 03:00:32;;;;;;;66.68;26.70;;;;;;;;;;4992368;28;20026;-66
2021/12/18 03:03:04;;;;;;;64.65;25.15;;;;;;;;;;4992798;28;20105;-66
2021/12/18 03:05:36;;;;;;;57.90;22.88;;;;;;;;;;4992453;28;20031;-66
2021/12/18 03:08:16;;;;;;;54.15;24.08;;;;;;;;;;4992403;28;20034;-66
2021/12/18 03:19:32;;;;;;;61.03;24.00;;;;;;;;;;4977434;28;20085;-66
2021/12/18 03:22:39;;;;;;;55.90;23.70;;;;;;;;;;4983497;28;20030;-66
2021/12/18 03:27:22;;;;;;;60.80;24.92;;;;;;;;;;4992691;28;20034;-66
2021/12/18 03:29:49;;;;;;;64.15;24.92;;;;;;;;;;4992368;28;20142;-66
2021/12/18 03:32:15;;;;;;;50.85;21.77;;;;;;;;;;4992364;28;20438;-66
2021/12/18 03:34:42;;;;;;;64.35;24.65;;;;;;;;;;4991626;28;20490;-66
2021/12/18 03:37:09;;;;;;;57.22;23.70;;;;;;;;;;4992178;28;20029;-66
2021/12/18 03:39:35;;;;;;;56.92;24.02;;;;;;;;;;4992010;28;20077;-66
2021/12/18 03:42:02;;;;;;;62.50;23.88;;;;;;;;;;4992470;28;20410;-66
2021/12/18 03:44:28;;;;;;;56.50;22.75;;;;;;;;;;4991185;28;20113;-66
2021/12/18 03:46:55;;;;;;;63.17;23.45;;;;;;;;;;4991784;28;20055;-66
2021/12/18 03:49:21;;;;;;;59.78;22.52;;;;;;;;;;4992154;28;20036;-66
2021/12/18 03:51:47;;;;;;;64.07;24.55;;;;;;;;;;4992329;28;20486;-66
2021/12/18 03:54:13;;;;;;;60.78;23.05;;;;;;;;;;4991990;28;20030;-66
2021/12/18 03:56:39;;;;;;;67.75;24.15;;;;;;;;;;4991855;28;20080;-66
2021/12/18 03:59:05;;;;;;;55.72;23.10;;;;;;;;;;4992340;28;20034;-66
2021/12/18 04:01:31;;;;;;;64.25;25.02;;;;;;;;;;4990920;28;20042;-67
2021/12/18 04:03:58;;;;;;;61.42;23.75;;;;;;;;;;4992319;28;20027;-67
2021/12/18 04:06:24;;;;;;;57.50;22.70;;;;;;;;;;4992631;28;20482;-67
2021/12/18 04:08:50;;;;;;;60.53;23.20;;;;;;;;;;4991926;28;20113;-66
2021/12/18 04:11:16;;;;;;;64.72;24.23;;;;;;;;;;4994438;28;20158;-66
2021/12/18 04:13:45;;;;;;;63.55;26.23;;;;;;;;;;4995901;28;20037;-66
2021/12/18 04:16:12;;;;;;;54.85;23.30;;;;;;;;;;4995916;28;20030;-66
2021/12/18 04:18:38;;;;;;;54.42;23.88;;;;;;;;;;4995211;28;20475;-66
2021/12/18 04:21:04;;;;;;;53.42;22.10;;;;;;;;;;4995572;28;20018;-66
2021/12/18 04:23:31;;;;;;;63.05;22.35;;;;;;;;;;4995594;28;20022;-66
2021/12/18 04:25:57;;;;;;;61.42;23.38;;;;;;;;;;4994961;28;20052;-66
2021/12/18 04:28:24;;;;;;;65.28;21.75;;;;;;;;;;4994056;28;20083;-66
2021/12/18 04:30:50;;;;;;;59.45;23.48;;;;;;;;;;4994796;28;20027;-66
2021/12/18 04:33:16;;;;;;;59.03;22.95;;;;;;;;;;4995006;28;20027;-66
2021/12/18 04:35:43;;;;;;;56.97;22.65;;;;;;;;;;4994682;28;20100;-66
2021/12/18 04:38:09;;;;;;;58.88;24.67;;;;;;;;;;4995307;28;20031;-66
2021/12/18 04:40:35;;;;;;;60.55;22.90;;;;;;;;;;4995300;28;20518;-66
2021/12/18 04:43:02;;;;;;;57.60;22.60;;;;;;;;;;4995085;28;20030;-66
2021/12/18 04:45:29;;;;;;;64.25;22.15;;;;;;;;;;4995346;28;20042;-66
2021/12/18 04:47:55;;;;;;;61.60;22.55;;;;;;;;;;4994814;28;20034;-66
2021/12/18 04:50:22;;;;;;;63.00;22.23;;;;;;;;;;4994911;28;20406;-66
2021/12/18 04:52:48;;;;;;;60.47;23.00;;;;;;;;;;4994605;28;20022;-66
2021/12/18 04:55:14;;;;;;;65.90;22.83;;;;;;;;;;4994865;28;20049;-66
2021/12/18 04:57:40;;;;;;;74.22;23.90;;;;;;;;;;4994962;28;20014;-66
2021/12/18 05:00:08;;;;;;;58.35;23.30;;;;;;;;;;4994527;28;20382;-66
2021/12/18 05:02:41;;;;;;;65.38;25.08;;;;;;;;;;4993984;28;20038;-66
2021/12/18 05:05:08;;;;;;;66.32;24.42;;;;;;;;;;4994598;28;20057;-66
2021/12/18 05:07:34;;;;;;;65.00;23.23;;;;;;;;;;4994720;28;20033;-66
2021/12/18 05:10:00;;;;;;;65.22;24.00;;;;;;;;;;4994661;28;20088;-66
2021/12/18 05:12:27;;;;;;;72.03;24.10;;;;;;;;;;4994879;28;20019;-66
2021/12/18 05:14:53;;;;;;;62.75;23.90;;;;;;;;;;4994083;28;20424;-66
2021/12/18 05:17:19;;;;;;;64.35;23.48;;;;;;;;;;4994831;28;20073;-66
2021/12/18 05:19:45;;;;;;;61.47;24.40;;;;;;;;;;4994065;28;20022;-66
2021/12/18 05:22:11;;;;;;;68.35;23.35;;;;;;;;;;4994797;28;20097;-66
2021/12/18 05:24:37;;;;;;;65.50;24.35;;;;;;;;;;4994891;28;20038;-66
2021/12/18 05:27:03;;;;;;;57.25;23.70;;;;;;;;;;4994910;28;20022;-66
2021/12/18 05:29:29;;;;;;;58.22;23.35;;;;;;;;;;4994776;28;20054;-66
2021/12/18 05:31:55;;;;;;;62.60;23.70;;;;;;;;;;4994226;28;20105;-66
2021/12/18 05:34:24;;;;;;;64.22;24.92;;;;;;;;;;4994125;28;20026;-66
2021/12/18 05:39:27;;;;;;;68.05;24.20;;;;;;;;;;4994356;28;20030;-66
2021/12/18 05:41:53;;;;;;;65.40;23.38;;;;;;;;;;4994500;28;20471;-66
2021/12/18 05:44:20;;;;;;;62.95;24.77;;;;;;;;;;4994578;28;20540;-66
2021/12/18 05:46:47;;;;;;;66.60;24.33;;;;;;;;;;4994272;28;20101;-66
2021/12/18 05:49:13;;;;;;;61.17;25.33;;;;;;;;;;4993818;28;20034;-66
2021/12/18 05:51:40;;;;;;;65.55;24.38;;;;;;;;;;4994380;28;20035;-66
2021/12/18 05:54:07;;;;;;;64.88;24.42;;;;;;;;;;4993663;28;20027;-66
2021/12/18 05:56:33;;;;;;;67.30;25.25;;;;;;;;;;4993846;28;20033;-66
2021/12/18 05:59:00;;;;;;;63.88;25.80;;;;;;;;;;4993842;28;20386;-66
2021/12/18 06:01:26;;;;;;;60.28;24.38;;;;;;;;;;4994203;28;20028;-66
2021/12/18 06:03:52;;;;;;;66.43;26.00;;;;;;;;;;4993622;28;20105;-66
2021/12/18 06:06:20;;;;;;;74.85;25.48;;;;;;;;;;4994071;28;20037;-66
2021/12/18 06:08:47;;;;;;;65.53;23.67;;;;;;;;;;4993936;28;20446;-66
2021/12/18 06:11:15;;;;;;;71.82;24.55;;;;;;;;;;4993803;28;20053;-66
2021/12/18 06:13:45;;;;;;;70.95;25.98;;;;;;;;;;4993675;28;20057;-66
2021/12/18 06:16:12;;;;;;;58.83;23.83;;;;;;;;;;4993299;28;20046;-66
2021/12/18 06:18:44;;;;;;;72.88;24.67;;;;;;;;;;4993166;28;20033;-66
2021/12/18 06:21:13;;;;;;;66.03;24.90;;;;;;;;;;4992549;28;20554;-66
2021/12/18 06:23:39;;;;;;;70.93;25.15;;;;;;;;;;4990525;28;20027;-66
2021/12/18 06:26:05;;;;;;;69.40;24.35;;;;;;;;;;4992424;28;20033;-66
2021/12/18 06:28:31;;;;;;;63.42;23.60;;;;;;;;;;4993149;28;20026;-66
2021/12/18 06:30:58;;;;;;;62.72;23.60;;;;;;;;;;4989918;28;20022;-66
2021/12/18 06:33:24;;;;;;;65.72;24.55;;;;;;;;;;4994409;28;20097;-66
2021/12/18 06:35:50;;;;;;;62.63;24.05;;;;;;;;;;4992484;28;20142;-66
2021/12/18 06:38:17;;;;;;;69.75;24.50;;;;;;;;;;4992231;28;20037;-66
2021/12/18 06:40:43;;;;;;;62.35;25.02;;;;;;;;;;4992636;28;20117;-66
2021/12/18 06:43:09;;;;;;;57.55;23.83;;;;;;;;;;4992409;28;20026;-66
2021/12/18 06:45:35;;;;;;;63.47;24.50;;;;;;;;;;4992416;28;20038;-66
2021/12/18 06:48:01;;;;;;;59.35;23.75;;;;;;;;;;4992219;28;20117;-66
2021/12/18 06:50:28;;;;;;;66.68;23.27;;;;;;;;;;4992782;28;20034;-66
2021/12/18 06:52:54;;;;;;;62.13;25.90;;;;;;;;;;4992054;28;20027;-66
2021/12/18 06:55:20;;;;;;;71.63;24.27;;;;;;;;;;4992374;28;20022;-66
2021/12/18 06:57:47;;;;;;;59.88;23.63;;;;;;;;;;4991873;28;20034;-66
2021/12/18 07:00:14;;;;;;;73.35;25.42;;;;;;;;;;5007141;28;20446;-66
2021/12/18 07:02:40;;;;;;;64.25;24.15;;;;;;;;;;4992173;28;20023;-67
2021/12/18 07:05:07;;;;;;;66.63;24.55;;;;;;;;;;4998674;28;20022;-67
2021/12/18 07:07:33;;;;;;;68.78;24.60;;;;;;;;;;5002489;28;20034;-67
2021/12/18 07:09:59;;;;;;;61.10;24.10;;;;;;;;;;5000462;28;20398;-67
2021/12/18 07:12:25;;;;;;;69.63;24.45;;;;;;;;;;5003197;28;20382;-67
2021/12/18 07:14:51;;;;;;;58.80;23.50;;;;;;;;;;5001381;28;20030;-67
2021/12/18 07:17:18;;;;;;;59.58;21.90;;;;;;;;;;4995207;28;20034;-67
2021/12/18 07:19:44;;;;;;;66.10;23.48;;;;;;;;;;4994572;28;20046;-67
2021/12/18 07:22:10;;;;;;;60.15;24.65;;;;;;;;;;4998901;28;20607;-67
2021/12/18 07:24:36;;;;;;;60.95;24.52;;;;;;;;;;4998247;28;20027;-67
2021/12/18 07:27:02;;;;;;;61.63;22.65;;;;;;;;;;4997922;28;20484;-67
2021/12/18 07:29:28;;;;;;;62.45;22.58;;;;;;;;;;4998381;28;20276;-67
2021/12/18 07:31:54;;;;;;;61.33;22.88;;;;;;;;;;5002276;28;20026;-67
2021/12/18 07:34:20;;;;;;;67.47;25.08;;;;;;;;;;4991818;28;20038;-67
2021/12/18 07:36:47;;;;;;;54.05;22.83;;;;;;;;;;4991614;28;20069;-67
2021/12/18 07:39:13;;;;;;;58.22;23.75;;;;;;;;;;4992118;28;20501;-67
2021/12/18 07:41:39;;;;;;;58.50;22.17;;;;;;;;;;4991758;28;20014;-67
2021/12/18 07:44:08;;;;;;;66.85;23.17;;;;;;;;;;4988116;28;20053;-68
2021/12/18 07:46:38;;;;;;;54.90;23.17;;;;;;;;;;4993595;28;20037;-67
2021/12/18 07:49:08;;;;;;;54.47;21.95;;;;;;;;;;4993940;28;20036;-67
2021/12/18 07:51:34;;;;;;;59.55;22.90;;;;;;;;;;4994405;28;20045;-68
2021/12/18 07:54:00;;;;;;;55.85;22.35;;;;;;;;;;4994194;28;20066;-68
2021/12/18 07:56:26;;;;;;;64.70;23.50;;;;;;;;;;4994124;28;20109;-67
2021/12/18 07:58:53;;;;;;;59.53;22.05;;;;;;;;;;4994371;28;20158;-67
2021/12/18 08:01:19;;;;;;;60.03;23.70;;;;;;;;;;4993404;28;20076;-67
2021/12/18 08:03:45;;;;;;;48.47;22.83;;;;;;;;;;4994456;28;20077;-67
2021/12/18 08:06:11;;;;;;;62.17;23.98;;;;;;;;;;4976963;28;20534;-67
2021/12/18 08:08:37;;;;;;;63.88;23.10;;;;;;;;;;4995463;28;20030;-67
2021/12/18 08:11:04;;;;;;;54.55;23.40;;;;;;;;;;4994258;28;20622;-67
2021/12/18 08:13:30;;;;;;;57.67;23.70;;;;;;;;;;4994368;28;20141;-67
2021/12/18 08:15:56;;;;;;;55.60;23.83;;;;;;;;;;4995970;28;20591;-67
2021/12/18 08:18:22;;;;;;;55.08;22.77;;;;;;;;;;4995665;28;20023;-67
2021/12/18 08:20:48;;;;;;;55.92;22.63;;;;;;;;;;4992463;28;20386;-68
2021/12/18 08:23:14;;;;;;;59.80;23.65;;;;;;;;;;4994980;28;20031;-68
2021/12/18 08:25:41;;;;;;;58.55;22.23;;;;;;;;;;4994132;28;20088;-67
2021/12/18 08:28:07;;;;;;;63.03;24.27;;;;;;;;;;4993287;28;20118;-68
2021/12/18 08:30:34;;;;;;;54.40;23.05;;;;;;;;;;4993335;28;20177;-68
2021/12/18 08:33:00;;;;;;;55.92;22.67;;;;;;;;;;4991287;28;20144;-68
2021/12/18 08:35:27;;;;;;;53.80;22.00;;;;;;;;;;4991221;28;20082;-68
2021/12/18 08:37:54;;;;;;;61.33;22.23;;;;;;;;;;4994659;28;20031;-67
2021/12/18 08:40:20;;;;;;;56.70;22.05;;;;;;;;;;4993211;28;20406;-67
2021/12/18 08:42:47;;;;;;;56.97;25.23;;;;;;;;;;4989220;28;20042;-67
2021/12/18 08:45:13;;;;;;;59.00;22.50;;;;;;;;;;4991272;28;20030;-68
2021/12/18 08:47:39;;;;;;;54.58;22.92;;;;;;;;;;4990947;28;20038;-68
2021/12/18 08:50:06;;;;;;;53.75;20.80;;;;;;;;;;4991483;28;20026;-67
2021/12/18 08:52:33;;;;;;;49.60;21.10;;;;;;;;;;4991390;28;20458;-67
2021/12/18 08:54:59;;;;;;;53.85;21.92;;;;;;;;;;4990958;28;20030;-67
2021/12/18 08:57:25;;;;;;;50.45;20.98;;;;;;;;;;4993697;28;20026;-67
2021/12/18 08:59:51;;;;;;;49.17;19.95;;;;;;;;;;4992501;28;20368;-67
2021/12/18 09:02:18;;;;;;;51.33;21.15;;;;;;;;;;4994046;28;20029;-67
2021/12/18 09:04:44;;;;;;;49.85;21.73;;;;;;;;;;4993468;28;20031;-67
2021/12/18 09:07:10;;;;;;;44.20;19.75;;;;;;;;;;4993793;28;20022;-67
2021/12/18 09:09:37;;;;;;;49.42;19.73;;;;;;;;;;4992775;28;20023;-67
2021/12/18 09:12:03;;;;;;;48.75;19.15;;;;;;;;;;4992133;28;20105;-67
2021/12/18 09:14:29;;;;;;;48.88;20.42;;;;;;;;;;4995682;28;20045;-67
2021/12/18 09:16:55;;;;;;;44.42;19.63;;;;;;;;;;4993768;28;20026;-67
2021/12/18 09:19:21;;;;;;;46.08;19.38;;;;;;;;;;4993427;28;20053;-67
2021/12/18 09:21:47;;;;;;;44.95;18.48;;;;;;;;;;4992987;28;20019;-67
2021/12/18 09:24:13;;;;;;;40.95;19.05;;;;;;;;;;4993515;28;20027;-67
2021/12/18 09:26:39;;;;;;;55.67;21.05;;;;;;;;;;4990718;28;20659;-67
2021/12/18 09:29:05;;;;;;;41.47;18.83;;;;;;;;;;5007065;28;20066;-67
2021/12/18 09:31:32;;;;;;;44.47;18.63;;;;;;;;;;4992103;28;20049;-67
2021/12/18 09:33:58;;;;;;;47.30;18.70;;;;;;;;;;4991700;28;20030;-68
2021/12/18 09:36:24;;;;;;;41.00;18.50;;;;;;;;;;4991198;28;20502;-68
2021/12/18 09:38:50;;;;;;;42.45;18.17;;;;;;;;;;4992632;28;20026;-68
2021/12/18 09:41:16;;;;;;;48.20;20.17;;;;;;;;;;4992922;28;20553;-67
2021/12/18 09:43:42;;;;;;;45.25;18.85;;;;;;;;;;4991473;28;20379;-67
2021/12/18 09:46:09;;;;;;;40.33;18.40;;;;;;;;;;4993248;28;20038;-67
2021/12/18 09:48:37;;;;;;;38.78;17.38;;;;;;;;;;4993162;28;20037;-67
2021/12/18 09:51:09;;;;;;;37.22;18.13;;;;;;;;;;4992346;28;20042;-67
2021/12/18 09:53:35;;;;;;;38.83;17.58;;;;;;;;;;4993100;28;20128;-67
2021/12/18 09:56:03;;;;;;;37.88;16.75;;;;;;;;;;4992067;28;20108;-67
2021/12/18 09:58:29;;;;;;;39.25;17.30;;;;;;;;;;4993283;28;20040;-67
2021/12/18 10:00:55;;;;;;;38.88;17.52;;;;;;;;;;4993019;28;20393;-67
2021/12/18 10:03:21;;;;;;;34.28;16.75;;;;;;;;;;4994349;28;20022;-67
2021/12/18 10:05:47;;;;;;;40.38;16.88;;;;;;;;;;4993137;28;20030;-67
2021/12/18 10:08:16;;;;;;;36.70;17.85;;;;;;;;;;4994987;28;20038;-67
2021/12/18 10:11:18;;;;;;;34.25;16.80;;;;;;;;;;4995698;28;20394;-67
2021/12/18 10:13:57;;;;;;;34.55;16.95;;;;;;;;;;4911853;29;20111;-67
2021/12/18 10:16:24;;;;;;;40.70;16.52;;;;;;;;;;4919448;29;20040;-67
2021/12/18 10:18:50;;;;;;;36.42;16.63;;;;;;;;;;4921037;29;20579;-67
2021/12/18 10:21:18;;;;;;;35.08;16.77;;;;;;;;;;4913835;29;20123;-67
2021/12/18 10:23:44;;;;;;;36.30;16.30;;;;;;;;;;4911553;29;20427;-67
2021/12/18 10:26:29;;;;;;;38.25;16.50;;;;;;;;;;4913764;29;20032;-67
2021/12/18 10:28:55;;;;;;;32.83;16.05;;;;;;;;;;4913883;29;20052;-67
2021/12/18 10:31:41;;;;;;;36.05;16.77;;;;;;;;;;4914514;29;20040;-67
2021/12/18 10:34:33;;;;;;;36.13;16.80;;;;;;;;;;4911220;29;20040;-67
2021/12/18 10:37:09;;;;;;;33.90;16.98;;;;;;;;;;4909968;29;20055;-67
2021/12/18 10:39:36;;;;;;;34.10;16.75;;;;;;;;;;4912304;29;20036;-67
2021/12/18 10:42:19;;;;;;;37.60;16.90;;;;;;;;;;4897417;29;20041;-67
2021/12/18 10:44:57;;;;;;;35.30;16.90;;;;;;;;;;4914604;29;20035;-67
2021/12/18 10:47:23;;;;;;;37.67;17.17;;;;;;;;;;4941713;28;20510;-67
2021/12/18 10:49:49;;;;;;;39.38;17.90;;;;;;;;;;4992280;28;20117;-67
2021/12/18 10:52:15;;;;;;;35.45;16.13;;;;;;;;;;4992361;28;20037;-67
2021/12/18 10:54:42;;;;;;;32.65;17.42;;;;;;;;;;4988074;28;20104;-67
2021/12/18 10:57:19;;;;;;;30.40;16.15;;;;;;;;;;4989680;28;20030;-67
2021/12/18 10:59:47;;;;;;;33.60;14.75;;;;;;;;;;4995702;28;20029;-67
2021/12/18 11:02:15;;;;;;;29.88;14.98;;;;;;;;;;4992113;28;20141;-67
2021/12/18 11:04:41;;;;;;;35.65;15.68;;;;;;;;;;4989839;28;20409;-67
2021/12/18 11:07:17;;;;;;;35.22;15.20;;;;;;;;;;4991732;28;20084;-67
2021/12/18 11:09:59;;;;;;;31.60;15.13;;;;;;;;;;4992805;28;20042;-67
2021/12/18 11:15:10;;;;;;;31.00;14.52;;;;;;;;;;4991567;28;20474;-67
2021/12/18 11:17:36;;;;;;;36.67;17.13;;;;;;;;;;4992581;28;20026;-67
2021/12/18 11:20:02;;;;;;;30.52;15.07;;;;;;;;;;4991839;28;20139;-67
2021/12/18 11:22:29;;;;;;;29.65;14.65;;;;;;;;;;4996593;28;20037;-67
2021/12/18 11:25:01;;;;;;;32.75;15.73;;;;;;;;;;4997028;28;20034;-67
2021/12/18 11:27:28;;;;;;;32.78;15.25;;;;;;;;;;4997249;28;20034;-67
2021/12/18 11:29:56;;;;;;;29.63;14.50;;;;;;;;;;4996567;28;20027;-67
2021/12/18 11:32:23;;;;;;;33.95;14.88;;;;;;;;;;4999506;28;20026;-67
2021/12/18 11:34:50;;;;;;;31.42;13.85;;;;;;;;;;5001901;28;20037;-67
2021/12/18 11:37:18;;;;;;;28.63;15.40;;;;;;;;;;4991783;28;20039;-67
2021/12/18 11:39:44;;;;;;;34.28;14.77;;;;;;;;;;4991940;28;20408;-67
2021/12/18 11:42:11;;;;;;;26.90;13.90;;;;;;;;;;4988962;28;20290;-67
2021/12/18 11:44:40;;;;;;;34.67;15.45;;;;;;;;;;4990706;28;20022;-67
2021/12/18 11:47:25;;;;;;;30.00;14.45;;;;;;;;;;4990296;28;20491;-67
2021/12/18 11:49:52;;;;;;;33.17;15.10;;;;;;;;;;4990618;28;20491;-67
2021/12/18 11:52:18;;;;;;;32.53;15.88;;;;;;;;;;4991966;28;20521;-68
2021/12/18 11:54:44;;;;;;;29.15;14.75;;;;;;;;;;4991943;28;20376;-68
2021/12/18 11:57:11;;;;;;;30.40;14.68;;;;;;;;;;4991089;28;20118;-68
2021/12/18 11:59:42;;;;;;;34.95;14.85;;;;;;;;;;4991774;28;20081;-68
2021/12/18 12:02:09;;;;;;;34.75;16.77;;;;;;;;;;4991429;28;20049;-68
2021/12/18 12:04:55;;;;;;;32.10;14.95;;;;;;;;;;4991307;28;20042;-68
2021/12/18 12:07:22;;;;;;;23.83;13.40;;;;;;;;;;4990456;28;20446;-68
2021/12/18 12:10:06;;;;;;;30.88;14.48;;;;;;;;;;4991089;28;20022;-68
2021/12/18 12:12:53;;;;;;;28.35;14.50;;;;;;;;;;4989024;28;20038;-68
2021/12/18 12:15:20;;;;;;;26.00;13.68;;;;;;;;;;4990347;28;20177;-68
2021/12/18 12:17:57;;;;;;;29.10;13.48;;;;;;;;;;4990753;28;20027;-68
2021/12/18 12:20:43;;;;;;;27.48;13.07;;;;;;;;;;4990895;28;20383;-68
2021/12/18 12:23:10;;;;;;;29.98;13.60;;;;;;;;;;4990435;28;20118;-68
2021/12/18 12:25:36;;;;;;;27.92;13.68;;;;;;;;;;4988637;28;20502;-68
2021/12/18 12:28:22;;;;;;;27.38;13.60;;;;;;;;;;4992552;28;20033;-68
2021/12/18 12:31:03;;;;;;;26.33;13.15;;;;;;;;;;4987733;28;20537;-68
2021/12/18 12:33:36;;;;;;;28.42;13.23;;;;;;;;;;4994361;28;20065;-67
2021/12/18 12:36:16;;;;;;;26.98;13.10;;;;;;;;;;4988995;28;20499;-67
2021/12/18 12:38:55;;;;;;;27.10;13.85;;;;;;;;;;4994563;28;20019;-67
2021/12/18 12:41:27;;;;;;;28.98;13.52;;;;;;;;;;4994844;28;20066;-67
2021/12/18 12:43:54;;;;;;;30.20;14.00;;;;;;;;;;4994642;28;20022;-67
2021/12/18 12:46:21;;;;;;;27.65;13.60;;;;;;;;;;4993715;28;20045;-67
2021/12/18 12:49:07;;;;;;;29.65;14.10;;;;;;;;;;4993481;28;20034;-67
2021/12/18 12:51:55;;;;;;;24.92;13.27;;;;;;;;;;4994234;28;20027;-67
2021/12/18 12:54:41;;;;;;;25.08;12.13;;;;;;;;;;4994661;28;20022;-67
2021/12/18 12:57:30;;;;;;;28.52;13.13;;;;;;;;;;4988730;28;20076;-67
2021/12/18 12:59:59;;;;;;;26.88;12.75;;;;;;;;;;4993847;28;20418;-67
2021/12/18 13:02:25;;;;;;;26.45;12.40;;;;;;;;;;4994341;28;20030;-67
2021/12/18 13:05:11;;;;;;;27.20;13.70;;;;;;;;;;4993252;28;20058;-67
2021/12/18 13:07:51;;;;;;;27.25;12.57;;;;;;;;;;4994485;28;20031;-67
2021/12/18 13:10:21;;;;;;;30.58;13.13;;;;;;;;;;4993123;28;20404;-67
2021/12/18 13:13:07;;;;;;;27.85;13.60;;;;;;;;;;4990955;28;20033;-67
2021/12/18 13:15:52;;;;;;;23.15;12.15;;;;;;;;;;4994810;28;20177;-67
2021/12/18 13:18:19;;;;;;;25.00;13.00;;;;;;;;;;4992894;28;20124;-67
2021/12/18 13:20:55;;;;;;;26.35;12.82;;;;;;;;;;4993463;28;20022;-67
2021/12/18 13:23:41;;;;;;;29.70;11.88;;;;;;;;;;5000863;28;20495;-67
2021/12/18 13:26:08;;;;;;;24.63;12.55;;;;;;;;;;4991760;28;20030;-67
2021/12/18 13:28:35;;;;;;;24.45;12.63;;;;;;;;;;4994943;28;20092;-67
2021/12/18 13:31:09;;;;;;;25.35;12.63;;;;;;;;;;4994431;28;20038;-67
2021/12/18 13:33:35;;;;;;;22.70;12.38;;;;;;;;;;4992049;28;20030;-67
2021/12/18 13:36:02;;;;;;;26.02;13.20;;;;;;;;;;4990779;28;20046;-67
2021/12/18 13:38:39;;;;;;;27.15;12.52;;;;;;;;;;4994471;28;20038;-67
2021/12/18 13:41:09;;;;;;;23.83;12.75;;;;;;;;;;4991939;28;20022;-67
2021/12/18 13:43:35;;;;;;;27.83;12.93;;;;;;;;;;4992118;28;20117;-67
2021/12/18 13:46:05;;;;;;;26.58;12.32;;;;;;;;;;4993957;28;20110;-67
2021/12/18 13:48:39;;;;;;;30.23;13.48;;;;;;;;;;4990856;28;20034;-67
2021/12/18 13:51:07;;;;;;;30.73;14.63;;;;;;;;;;4991405;28;20500;-68
2021/12/18 13:53:33;;;;;;;27.15;14.27;;;;;;;;;;4993183;28;20161;-68
2021/12/18 13:56:07;;;;;;;30.20;14.43;;;;;;;;;;4992585;28;20022;-68
2021/12/18 13:58:39;;;;;;;29.33;13.55;;;;;;;;;;4989243;28;20518;-68
2021/12/18 14:01:10;;;;;;;31.88;14.50;;;;;;;;;;4990729;28;20040;-67
2021/12/18 14:03:57;;;;;;;31.42;14.73;;;;;;;;;;4989535;28;20019;-67
2021/12/18 14:06:26;;;;;;;32.28;14.43;;;;;;;;;;4988489;28;20119;-67
2021/12/18 14:08:56;;;;;;;34.95;15.25;;;;;;;;;;4991814;28;20031;-67
2021/12/18 14:11:29;;;;;;;29.88;14.45;;;;;;;;;;4996794;28;20030;-68
2021/12/18 14:14:00;;;;;;;32.67;15.65;;;;;;;;;;4993906;28;20022;-67
2021/12/18 14:16:27;;;;;;;31.20;15.75;;;;;;;;;;4993201;28;20022;-67
2021/12/18 14:18:54;;;;;;;30.33;14.25;;;;;;;;;;4995798;28;20054;-67
2021/12/18 14:21:32;;;;;;;32.88;14.68;;;;;;;;;;4991816;28;20022;-67
2021/12/18 14:24:00;;;;;;;29.70;14.98;;;;;;;;;;4988531;28;20034;-67
2021/12/18 14:26:27;;;;;;;35.22;14.40;;;;;;;;;;4986223;28;20521;-67
2021/12/18 14:28:55;;;;;;;33.17;15.23;;;;;;;;;;4990683;28;20034;-67
2021/12/18 14:31:50;;;;;;;27.92;14.63;;;;;;;;;;4990822;28;20026;-67
2021/12/18 14:34:22;;;;;;;34.55;16.42;;;;;;;;;;4970736;28;20031;-67
2021/12/18 14:36:48;;;;;;;28.48;14.00;;;;;;;;;;4991181;28;20465;-67
2021/12/18 14:39:18;;;;;;;33.53;15.02;;;;;;;;;;4990548;28;20030;-67
2021/12/18 14:41:53;;;;;;;38.30;17.17;;;;;;;;;;4991382;28;20363;-67
2021/12/18 14:44:19;;;;;;;34.03;15.57;;;;;;;;;;4987897;28;20364;-67
2021/12/18 14:46:45;;;;;;;29.95;15.73;;;;;;;;;;4992098;28;20030;-67
2021/12/18 14:49:12;;;;;;;33.17;16.60;;;;;;;;;;4992258;28;20030;-67
2021/12/18 14:51:38;;;;;;;34.70;16.23;;;;;;;;;;4993224;28;20026;-67
2021/12/18 14:54:05;;;;;;;34.78;16.25;;;;;;;;;;4991510;28;20027;-67
2021/12/18 14:56:32;;;;;;;32.40;16.25;;;;;;;;;;4992108;28;20081;-67
2021/12/18 14:58:58;;;;;;;33.45;15.82;;;;;;;;;;4992842;28;20081;-67
2021/12/18 15:01:24;;;;;;;37.38;17.10;;;;;;;;;;4992469;28;20057;-67
2021/12/18 15:03:52;;;;;;;38.13;16.85;;;;;;;;;;4992364;28;20109;-67
2021/12/18 15:06:28;;;;;;;33.88;16.20;;;;;;;;;;4993055;28;20113;-67
2021/12/18 15:08:56;;;;;;;38.33;17.85;;;;;;;;;;4991899;28;20065;-67
2021/12/18 15:11:32;;;;;;;36.20;16.35;;;;;;;;;;4998206;28;20116;-68
2021/12/18 15:14:01;;;;;;;38.47;16.77;;;;;;;;;;4991188;28;20031;-68
2021/12/18 15:16:29;;;;;;;39.05;16.95;;;;;;;;;;4990823;28;20030;-68